createdAt,value
2018-10-18T00:01:35.716Z,17.86
2018-10-18T00:04:05.077Z,17.98
2018-10-18T00:06:34.435Z,17.91
2018-10-18T00:09:04.581Z,18.01
2018-10-18T00:11:33.918Z,18.12
2018-10-18T00:14:03.286Z,18.10
2018-10-18T00:16:32.592Z,18.14
2018-10-18T00:19:01.917Z,17.97
2018-10-18T00:21:31.293Z,17.88
2018-10-18T00:24:01.070Z,17.98
2018-10-18T00:26:30.716Z,18.09
2018-10-18T00:29:00.204Z,18.07
2018-10-18T00:31:29.831Z,17.96
2018-10-18T00:33:59.207Z,18.12
2018-10-18T00:36:28.629Z,18.09
2018-10-18T00:38:57.955Z,18.02
2018-10-18T00:41:27.292Z,17.97
2018-10-18T00:43:56.904Z,17.93
2018-10-18T00:46:26.837Z,18.11
2018-10-18T00:48:56.143Z,17.88
2018-10-18T00:51:25.452Z,17.95
2018-10-18T00:53:54.797Z,17.89
2018-10-18T00:56:24.029Z,17.81
2018-10-18T00:58:53.343Z,17.84
2018-10-18T01:01:22.667Z,17.95
2018-10-18T01:03:51.940Z,17.89
2018-10-18T01:06:21.243Z,17.85
2018-10-18T01:08:50.630Z,17.71
2018-10-18T01:11:20.588Z,17.72
2018-10-18T01:13:49.858Z,17.67
2018-10-18T01:16:19.161Z,17.89
2018-10-18T01:18:48.476Z,17.76
2018-10-18T01:21:17.874Z,17.77
2018-10-18T01:23:47.210Z,17.89
2018-10-18T01:26:16.665Z,17.88
2018-10-18T01:28:45.831Z,17.95
2018-10-18T01:31:15.260Z,17.91
2018-10-18T01:33:44.569Z,18.00
2018-10-18T01:36:13.968Z,18.10
2018-10-18T01:38:43.979Z,18.00
2018-10-18T01:41:13.282Z,17.63
2018-10-18T01:43:42.587Z,17.67
2018-10-18T01:46:11.878Z,17.84
2018-10-18T01:48:41.175Z,17.72
2018-10-18T01:51:17.648Z,17.88
2018-10-18T01:53:47.371Z,17.94
2018-10-18T01:56:16.716Z,18.04
2018-10-18T01:58:45.994Z,18.00
2018-10-18T02:01:15.359Z,17.98
2018-10-18T02:03:44.707Z,17.99
2018-10-18T02:06:21.451Z,18.11
2018-10-18T02:08:50.776Z,18.07
2018-10-18T02:11:20.050Z,18.08
2018-10-18T02:13:49.433Z,18.03
2018-10-18T02:16:18.702Z,18.08
2018-10-18T02:18:48.143Z,18.20
2018-10-18T02:21:17.446Z,18.22
2018-10-18T02:23:46.764Z,18.22
2018-10-18T02:26:16.050Z,18.12
2018-10-18T02:28:45.958Z,18.25
2018-10-18T02:31:15.273Z,18.15
2018-10-18T02:33:44.541Z,18.14
2018-10-18T02:36:13.922Z,18.27
2018-10-18T02:38:43.198Z,18.31
2018-10-18T02:41:12.651Z,18.26
2018-10-18T02:43:41.956Z,18.03
2018-10-18T02:46:11.299Z,18.20
2018-10-18T02:48:40.598Z,18.26
2018-10-18T02:51:10.138Z,18.17
2018-10-18T02:53:39.507Z,17.94
2018-10-18T02:56:09.014Z,17.91
2018-10-18T02:58:38.384Z,17.99
2018-10-18T03:01:07.641Z,17.98
2018-10-18T03:03:36.947Z,18.12
2018-10-18T03:06:06.430Z,18.08
2018-10-18T03:08:35.886Z,18.15
2018-10-18T03:11:05.872Z,18.03
2018-10-18T03:13:35.299Z,18.07
2018-10-18T03:16:04.701Z,18.20
2018-10-18T03:18:34.004Z,18.18
2018-10-18T03:21:03.322Z,18.18
2018-10-18T03:23:32.617Z,18.12
2018-10-18T03:26:01.907Z,18.10
2018-10-18T03:28:31.199Z,18.04
2018-10-18T03:31:00.506Z,17.99
2018-10-18T03:33:29.805Z,18.05
2018-10-18T03:35:59.346Z,18.14
2018-10-18T03:38:28.610Z,18.05
2018-10-18T03:40:57.883Z,18.14
2018-10-18T03:43:27.182Z,18.07
2018-10-18T03:45:56.558Z,18.06
2018-10-18T03:48:25.858Z,17.95
2018-10-18T03:50:55.237Z,17.94
2018-10-18T03:53:24.478Z,17.77
2018-10-18T03:55:53.779Z,18.05
2018-10-18T03:58:23.186Z,18.17
2018-10-18T04:00:52.485Z,18.29
2018-10-18T04:03:21.903Z,18.32
2018-10-18T04:05:51.185Z,18.20
2018-10-18T04:08:20.482Z,18.16
2018-10-18T04:10:49.755Z,18.29
2018-10-18T04:13:19.091Z,18.34
2018-10-18T04:15:48.525Z,18.32
2018-10-18T04:18:17.799Z,18.26
2018-10-18T04:20:47.313Z,18.18
2018-10-18T04:23:33.155Z,18.31
2018-10-18T04:26:03.650Z,18.23
2018-10-18T04:28:33.801Z,18.19
2018-10-18T04:31:04.094Z,18.18
2018-10-18T04:33:34.016Z,18.24
2018-10-18T04:36:03.450Z,18.27
2018-10-18T04:38:32.660Z,18.26
2018-10-18T04:41:02.697Z,18.26
2018-10-18T04:43:31.987Z,18.29
2018-10-18T04:46:01.503Z,18.20
2018-10-18T04:48:30.910Z,18.23
2018-10-18T04:51:00.117Z,18.08
2018-10-18T04:53:29.595Z,18.28
2018-10-18T04:55:58.905Z,18.36
2018-10-18T04:58:28.797Z,18.39
2018-10-18T05:00:58.166Z,18.42
2018-10-18T05:03:27.863Z,18.31
2018-10-18T05:06:01.522Z,18.18
2018-10-18T05:08:31.192Z,18.17
2018-10-18T05:11:00.458Z,18.17
2018-10-18T05:13:29.838Z,18.13
2018-10-18T05:15:59.206Z,18.07
2018-10-18T05:18:28.550Z,18.00
2018-10-18T05:20:57.909Z,18.16
2018-10-18T05:23:27.458Z,18.28
2018-10-18T05:25:57.082Z,18.30
2018-10-18T05:28:26.412Z,18.31
2018-10-18T05:30:55.782Z,18.23
2018-10-18T05:33:25.077Z,18.30
2018-10-18T05:35:54.492Z,18.08
2018-10-18T05:38:23.779Z,17.91
2018-10-18T05:40:53.076Z,17.86
2018-10-18T05:43:24.299Z,17.70
2018-10-18T05:45:55.290Z,17.84
2018-10-18T05:48:24.661Z,18.00
2018-10-18T05:50:53.964Z,18.13
2018-10-18T05:53:23.324Z,17.96
2018-10-18T05:55:52.704Z,17.95
2018-10-18T05:58:22.139Z,17.90
2018-10-18T06:00:51.878Z,17.79
2018-10-18T06:03:24.545Z,17.77
2018-10-18T06:05:54.126Z,17.92
2018-10-18T06:08:23.466Z,18.01
2018-10-18T06:11:09.601Z,18.11
2018-10-18T06:13:38.901Z,18.07
2018-10-18T06:16:08.189Z,18.01
2018-10-18T06:18:37.542Z,17.95
2018-10-18T06:21:06.848Z,18.00
2018-10-18T06:23:36.175Z,18.04
2018-10-18T06:26:06.137Z,17.92
2018-10-18T06:28:35.450Z,18.03
2018-10-18T06:31:05.196Z,17.99
2018-10-18T06:33:34.531Z,17.71
2018-10-18T06:36:03.791Z,17.71
2018-10-18T06:38:33.100Z,17.58
2018-10-18T06:41:02.480Z,17.80
2018-10-18T06:43:38.555Z,17.94
2018-10-18T06:46:11.096Z,17.77
2018-10-18T06:48:40.913Z,17.72
2018-10-18T06:51:10.824Z,17.76
2018-10-18T06:53:40.746Z,17.73
2018-10-18T06:56:10.099Z,17.59
2018-10-18T06:58:39.349Z,17.67
2018-10-18T07:01:08.990Z,17.79
2018-10-18T07:03:38.417Z,17.83
2018-10-18T07:06:07.713Z,17.80
2018-10-18T07:08:37.324Z,17.82
2018-10-18T07:11:07.001Z,17.83
2018-10-18T07:13:36.266Z,17.78
2018-10-18T07:16:06.009Z,18.06
2018-10-18T07:18:35.338Z,18.06
2018-10-18T07:21:04.942Z,18.14
2018-10-18T07:23:34.274Z,18.16
2018-10-18T07:26:03.606Z,18.36
2018-10-18T07:28:32.925Z,18.18
2018-10-18T07:31:02.659Z,18.74
2018-10-18T07:33:31.958Z,19.32
2018-10-18T07:36:01.259Z,19.48
2018-10-18T07:38:30.543Z,19.17
2018-10-18T07:40:59.918Z,18.94
2018-10-18T07:43:29.201Z,18.85
2018-10-18T07:45:58.527Z,18.67
2018-10-18T07:48:27.966Z,18.44
2018-10-18T07:50:57.329Z,18.53
2018-10-18T07:53:27.050Z,18.55
2018-10-18T07:55:56.304Z,18.54
2018-10-18T07:58:25.683Z,18.52
2018-10-18T08:00:55.037Z,18.65
2018-10-18T08:03:24.514Z,18.57
2018-10-18T08:05:53.842Z,18.72
2018-10-18T08:08:23.291Z,18.97
2018-10-18T08:10:52.617Z,19.16
2018-10-18T08:13:21.943Z,19.24
2018-10-18T08:15:51.398Z,19.40
2018-10-18T08:18:20.728Z,19.41
2018-10-18T08:20:50.060Z,19.34
2018-10-18T08:23:19.427Z,19.37
2018-10-18T08:25:48.726Z,19.33
2018-10-18T08:28:18.040Z,19.10
2018-10-18T08:30:47.404Z,18.83
2018-10-18T08:33:16.743Z,19.00
2018-10-18T08:35:46.050Z,19.03
2018-10-18T08:38:16.160Z,18.98
2018-10-18T08:40:45.463Z,18.73
2018-10-18T08:43:14.807Z,18.86
2018-10-18T08:45:44.086Z,18.99
2018-10-18T08:48:13.371Z,19.12
2018-10-18T08:50:42.675Z,19.39
2018-10-18T08:53:12.290Z,19.51
2018-10-18T08:55:41.576Z,19.68
2018-10-18T08:58:10.882Z,19.69
2018-10-18T09:00:40.256Z,19.67
2018-10-18T09:03:09.554Z,19.86
2018-10-18T09:05:38.866Z,20.04
2018-10-18T09:08:08.232Z,20.89
2018-10-18T09:10:37.583Z,21.03
2018-10-18T09:13:06.828Z,21.23
2018-10-18T09:15:36.207Z,21.02
2018-10-18T09:18:05.497Z,21.90
2018-10-18T09:20:34.811Z,24.63
2018-10-18T09:23:06.179Z,25.69
2018-10-18T09:25:35.529Z,24.98
2018-10-18T09:28:04.931Z,24.92
2018-10-18T09:30:34.248Z,24.97
2018-10-18T09:33:03.533Z,24.50
2018-10-18T09:35:32.911Z,23.92
2018-10-18T09:38:02.322Z,25.97
2018-10-18T09:40:31.640Z,28.07
2018-10-18T09:43:00.934Z,27.01
2018-10-18T09:45:30.411Z,26.77
2018-10-18T09:47:59.750Z,28.92
2018-10-18T09:50:29.047Z,31.88
2018-10-18T09:52:58.444Z,32.78
2018-10-18T09:55:30.797Z,31.78
2018-10-18T09:58:00.162Z,27.86
2018-10-18T10:00:34.588Z,26.46
2018-10-18T10:03:09.383Z,25.89
2018-10-18T10:05:38.646Z,24.84
2018-10-18T10:08:07.968Z,23.94
2018-10-18T10:10:37.573Z,23.39
2018-10-18T10:13:07.908Z,22.77
2018-10-18T10:15:37.282Z,22.77
2018-10-18T10:18:08.745Z,22.88
2018-10-18T10:20:38.065Z,22.97
2018-10-18T10:23:07.366Z,22.43
2018-10-18T10:25:39.031Z,22.63
2018-10-18T10:28:08.320Z,24.79
2018-10-18T10:30:37.657Z,27.57
2018-10-18T10:33:07.073Z,27.63
2018-10-18T10:35:36.963Z,28.26
2018-10-18T10:38:07.616Z,30.08
2018-10-18T10:40:36.932Z,30.94
2018-10-18T10:43:06.386Z,31.10
2018-10-18T10:45:35.956Z,32.41
2018-10-18T10:48:05.423Z,34.77
2018-10-18T10:50:34.710Z,34.21
2018-10-18T10:53:04.098Z,33.91
2018-10-18T10:55:33.431Z,34.11
2018-10-18T10:58:02.847Z,33.97
2018-10-18T11:01:16.695Z,33.05
2018-10-18T11:03:46.446Z,29.70
2018-10-18T11:06:16.238Z,28.17
2018-10-18T11:08:45.684Z,27.03
2018-10-18T11:11:15.717Z,26.21
2018-10-18T11:13:45.047Z,25.75
2018-10-18T11:16:14.381Z,27.24
2018-10-18T11:18:45.296Z,27.64
2018-10-18T11:21:16.320Z,30.05
2018-10-18T11:23:45.556Z,30.63
2018-10-18T11:26:14.961Z,29.89
2018-10-18T11:28:44.266Z,29.29
2018-10-18T11:31:13.541Z,28.26
2018-10-18T11:33:43.060Z,26.95
2018-10-18T11:36:13.761Z,26.06
2018-10-18T11:38:42.997Z,25.49
2018-10-18T11:41:12.353Z,25.40
2018-10-18T11:43:41.728Z,25.68
2018-10-18T11:46:11.041Z,25.85
2018-10-18T11:48:40.319Z,26.15
2018-10-18T11:51:09.706Z,26.03
2018-10-18T11:53:39.090Z,26.67
2018-10-18T11:56:08.490Z,26.25
2018-10-18T11:58:37.884Z,26.20
2018-10-18T12:01:07.211Z,26.50
2018-10-18T12:03:36.503Z,25.99
2018-10-18T12:06:07.952Z,26.32
2018-10-18T12:08:38.878Z,25.69
2018-10-18T12:11:08.246Z,25.06
2018-10-18T12:13:37.493Z,25.29
2018-10-18T12:16:06.857Z,24.90
2018-10-18T12:18:37.199Z,24.50
2018-10-18T12:21:06.640Z,24.21
2018-10-18T12:23:36.979Z,24.04
2018-10-18T12:26:06.335Z,23.76
2018-10-18T12:28:37.757Z,23.18
2018-10-18T12:31:07.236Z,23.00
2018-10-18T12:33:36.641Z,22.85
2018-10-18T12:36:06.324Z,22.93
2018-10-18T12:38:35.725Z,22.72
2018-10-18T12:41:06.728Z,22.33
2018-10-18T12:43:35.972Z,22.19
2018-10-18T12:46:05.567Z,21.91
2018-10-18T12:48:34.978Z,21.79
2018-10-18T12:51:04.775Z,21.71
2018-10-18T12:53:34.276Z,21.78
2018-10-18T12:56:03.661Z,21.49
2018-10-18T12:58:33.108Z,21.43
2018-10-18T13:01:03.040Z,21.38
2018-10-18T13:03:33.251Z,21.15
2018-10-18T13:06:02.688Z,20.85
2018-10-18T13:08:32.202Z,20.58
2018-10-18T13:11:01.626Z,20.72
2018-10-18T13:13:32.734Z,20.73
2018-10-18T13:16:02.693Z,20.56
2018-10-18T13:18:32.067Z,20.35
2018-10-18T13:21:01.533Z,20.35
2018-10-18T13:23:32.189Z,20.29
2018-10-18T13:26:02.300Z,19.97
2018-10-18T13:28:31.611Z,19.78
2018-10-18T13:31:01.700Z,19.62
2018-10-18T13:33:31.066Z,19.71
2018-10-18T13:36:00.520Z,19.59
2018-10-18T13:38:29.779Z,19.58
2018-10-18T13:40:59.237Z,19.65
2018-10-18T13:43:28.685Z,19.67
2018-10-18T13:45:57.993Z,19.73
2018-10-18T13:48:27.294Z,19.60
2018-10-18T13:50:56.611Z,19.38
2018-10-18T13:53:25.884Z,19.24
2018-10-18T13:55:55.214Z,19.23
2018-10-18T13:58:24.903Z,19.33
2018-10-18T14:00:54.283Z,19.38
2018-10-18T14:03:23.590Z,19.16
2018-10-18T14:05:52.951Z,19.13
2018-10-18T14:08:22.374Z,19.10
2018-10-18T14:10:52.609Z,18.92
2018-10-18T14:13:22.243Z,18.86
2018-10-18T14:15:51.555Z,18.55
2018-10-18T14:18:20.845Z,18.80
2018-10-18T14:20:50.243Z,18.71
2018-10-18T14:23:19.778Z,18.79
2018-10-18T14:25:49.313Z,18.68
2018-10-18T14:28:18.651Z,18.61
2018-10-18T14:30:48.766Z,18.86
2018-10-18T14:33:18.040Z,18.92
2018-10-18T14:35:47.344Z,19.04
2018-10-18T14:38:16.706Z,18.98
2018-10-18T14:40:45.986Z,18.89
2018-10-18T14:43:15.717Z,18.87
2018-10-18T14:45:46.595Z,18.96
2018-10-18T14:48:15.903Z,19.07
2018-10-18T14:50:45.494Z,18.81
2018-10-18T14:53:14.918Z,18.60
2018-10-18T14:55:44.253Z,18.33
2018-10-18T14:58:13.881Z,18.53
2018-10-18T15:00:43.333Z,18.60
2018-10-18T15:03:12.648Z,18.61
2018-10-18T15:05:43.957Z,18.63
2018-10-18T15:08:13.363Z,18.53
2018-10-18T15:10:42.676Z,18.34
2018-10-18T15:13:11.993Z,18.26
2018-10-18T15:15:41.350Z,18.40
2018-10-18T15:18:10.761Z,18.48
2018-10-18T15:20:40.895Z,18.36
2018-10-18T15:23:10.285Z,18.33
2018-10-18T15:25:39.782Z,18.33
2018-10-18T15:28:09.412Z,18.30
2018-10-18T15:30:39.259Z,18.28
2018-10-18T15:33:09.840Z,18.38
2018-10-18T15:35:40.272Z,18.40
2018-10-18T15:38:10.537Z,18.42
2018-10-18T15:40:40.547Z,18.43
2018-10-18T15:43:09.984Z,18.46
2018-10-18T15:45:39.285Z,18.22
2018-10-18T15:48:09.099Z,18.20
2018-10-18T15:50:45.158Z,18.16
2018-10-18T15:53:14.634Z,18.30
2018-10-18T15:55:43.932Z,18.33
2018-10-18T15:58:13.438Z,18.22
2018-10-18T16:00:42.800Z,18.12
2018-10-18T16:03:13.030Z,18.22
2018-10-18T16:05:42.351Z,18.28
2018-10-18T16:08:12.201Z,18.17
2018-10-18T16:10:41.572Z,18.20
2018-10-18T16:13:11.071Z,18.11
2018-10-18T16:15:40.411Z,17.99
2018-10-18T16:18:09.801Z,17.97
2018-10-18T16:20:39.118Z,17.87
2018-10-18T16:23:08.465Z,17.78
2018-10-18T16:25:37.965Z,17.82
2018-10-18T16:28:07.348Z,17.79
2018-10-18T16:30:37.262Z,17.86
2018-10-18T16:33:07.718Z,17.73
2018-10-18T16:35:37.059Z,17.66
2018-10-18T16:38:07.772Z,17.68
2018-10-18T16:40:37.370Z,17.76
2018-10-18T16:43:06.845Z,17.62
2018-10-18T16:45:36.380Z,17.31
2018-10-18T16:48:05.884Z,17.30
2018-10-18T16:50:35.212Z,17.28
2018-10-18T16:53:07.522Z,17.18
2018-10-18T16:55:37.515Z,17.13
2018-10-18T16:58:07.443Z,17.00
2018-10-18T17:00:36.731Z,16.92
2018-10-18T17:03:06.108Z,16.88
2018-10-18T17:05:36.335Z,16.72
2018-10-18T17:08:05.796Z,16.73
2018-10-18T17:10:35.629Z,16.64
2018-10-18T17:13:05.279Z,16.65
2018-10-18T17:15:34.941Z,16.69
2018-10-18T17:18:04.438Z,16.52
2018-10-18T17:20:34.088Z,16.45
2018-10-18T17:23:03.929Z,16.44
2018-10-18T17:25:33.295Z,16.52
2018-10-18T17:28:02.648Z,16.43
2018-10-18T17:30:32.022Z,16.36
2018-10-18T17:33:02.158Z,16.33
2018-10-18T17:35:33.361Z,16.30
2018-10-18T17:38:03.261Z,16.18
2018-10-18T17:40:32.602Z,16.17
2018-10-18T17:43:01.937Z,16.04
2018-10-18T17:45:31.288Z,16.02
2018-10-18T17:48:00.683Z,15.91
2018-10-18T17:50:30.195Z,16.02
2018-10-18T17:53:00.343Z,15.92
2018-10-18T17:55:29.637Z,15.73
2018-10-18T17:57:58.954Z,15.66
2018-10-18T18:00:28.711Z,15.62
2018-10-18T18:02:58.002Z,15.64
2018-10-18T18:05:27.380Z,15.71
2018-10-18T18:07:56.791Z,15.54
2018-10-18T18:10:26.267Z,15.42
2018-10-18T18:12:55.600Z,15.43
2018-10-18T18:15:25.054Z,15.41
2018-10-18T18:17:54.497Z,15.44
2018-10-18T18:20:23.854Z,15.40
2018-10-18T18:22:53.368Z,15.41
2018-10-18T18:25:23.714Z,15.43
2018-10-18T18:27:53.248Z,15.33
2018-10-18T18:30:24.036Z,15.21
2018-10-18T18:32:53.430Z,15.28
2018-10-18T18:35:22.920Z,15.28
2018-10-18T18:37:52.397Z,15.11
2018-10-18T18:40:21.758Z,15.21
2018-10-18T18:42:51.072Z,15.13
2018-10-18T18:45:21.760Z,15.07
2018-10-18T18:47:51.117Z,14.88
2018-10-18T18:50:20.613Z,14.97
2018-10-18T18:52:49.964Z,14.93
2018-10-18T18:55:19.430Z,14.85
2018-10-18T18:57:49.348Z,14.81
2018-10-18T19:00:18.839Z,14.50
2018-10-18T19:02:48.186Z,14.48
2018-10-18T19:05:17.576Z,14.65
2018-10-18T19:07:47.567Z,14.58
2018-10-18T19:10:16.975Z,14.49
2018-10-18T19:12:46.404Z,14.48
2018-10-18T19:15:15.898Z,14.51
2018-10-18T19:17:45.351Z,14.44
2018-10-18T19:20:14.920Z,14.26
2018-10-18T19:22:44.511Z,14.33
2018-10-18T19:25:14.706Z,14.31
2018-10-18T19:27:44.152Z,14.23
2018-10-18T19:30:13.790Z,14.34
2018-10-18T19:32:43.280Z,14.31
2018-10-18T19:35:12.705Z,14.19
2018-10-18T19:37:42.169Z,14.12
2018-10-18T19:40:11.605Z,14.17
2018-10-18T19:42:41.711Z,14.17
2018-10-18T19:45:11.312Z,14.22
2018-10-18T19:47:40.760Z,14.17
2018-10-18T19:50:10.307Z,14.22
2018-10-18T19:52:39.905Z,14.19
2018-10-18T19:55:09.944Z,14.15
2018-10-18T19:57:40.391Z,14.01
2018-10-18T20:00:10.665Z,14.14
2018-10-18T20:02:40.020Z,14.19
2018-10-18T20:05:09.638Z,14.09
2018-10-18T20:07:39.278Z,14.17
2018-10-18T20:10:09.031Z,14.14
2018-10-18T20:12:38.442Z,13.97
2018-10-18T20:15:08.831Z,13.99
2018-10-18T20:17:38.310Z,14.00
2018-10-18T20:20:10.085Z,13.89
2018-10-18T20:22:39.569Z,13.94
2018-10-18T20:25:09.756Z,13.74
2018-10-18T20:27:39.134Z,13.82
2018-10-18T20:30:12.790Z,13.79
2018-10-18T20:32:42.872Z,13.58
2018-10-18T20:35:12.639Z,13.59
2018-10-18T20:37:42.524Z,13.70
2018-10-18T20:40:14.087Z,13.53
2018-10-18T20:42:43.850Z,13.59
2018-10-18T20:45:19.497Z,13.54
2018-10-18T20:47:49.157Z,13.41
2018-10-18T20:50:18.441Z,13.41
2018-10-18T20:52:48.358Z,13.40
2018-10-18T20:55:17.811Z,13.25
2018-10-18T20:57:47.155Z,13.11
2018-10-18T21:00:16.605Z,13.12
2018-10-18T21:02:45.855Z,13.12
2018-10-18T21:05:17.077Z,13.09
2018-10-18T21:07:46.640Z,12.93
2018-10-18T21:10:16.099Z,13.00
2018-10-18T21:12:45.415Z,12.82
2018-10-18T21:15:15.779Z,12.77
2018-10-18T21:17:45.105Z,12.81
2018-10-18T21:20:14.509Z,12.69
2018-10-18T21:22:43.932Z,12.48
2018-10-18T21:25:13.330Z,12.63
2018-10-18T21:27:42.747Z,12.58
2018-10-18T21:30:12.052Z,12.56
2018-10-18T21:32:41.407Z,12.24
2018-10-18T21:35:10.865Z,12.38
2018-10-18T21:37:40.512Z,12.29
2018-10-18T21:40:09.848Z,12.39
2018-10-18T21:42:39.155Z,12.33
2018-10-18T21:45:08.785Z,12.31
2018-10-18T21:47:38.148Z,12.21
2018-10-18T21:50:07.545Z,12.27
2018-10-18T21:52:36.973Z,12.30
2018-10-18T21:55:07.121Z,12.12
2018-10-18T21:57:36.493Z,12.10
2018-10-18T22:00:11.861Z,12.19
2018-10-18T22:02:41.369Z,12.04
2018-10-18T22:05:11.131Z,11.96
2018-10-18T22:07:40.456Z,11.88
2018-10-18T22:10:10.385Z,11.82
2018-10-18T22:12:39.700Z,11.64
2018-10-18T22:15:10.528Z,11.74
2018-10-18T22:17:39.770Z,11.76
2018-10-18T22:20:10.589Z,11.79
2018-10-18T22:22:40.034Z,11.77
2018-10-18T22:25:10.052Z,11.68
2018-10-18T22:27:39.348Z,11.67
2018-10-18T22:30:08.998Z,11.61
2018-10-18T22:32:38.362Z,11.48
2018-10-18T22:35:07.670Z,11.32
2018-10-18T22:37:36.981Z,11.39
2018-10-18T22:40:07.431Z,11.24
2018-10-18T22:42:36.819Z,11.13
2018-10-18T22:45:07.578Z,11.38
2018-10-18T22:47:36.913Z,11.43
2018-10-18T22:50:06.250Z,11.41
2018-10-18T22:52:35.571Z,11.36
2018-10-18T22:55:05.001Z,11.42
2018-10-18T22:57:34.297Z,11.39
2018-10-18T23:00:03.579Z,11.47
2018-10-18T23:02:33.874Z,11.42
2018-10-18T23:05:03.362Z,11.40
2018-10-18T23:07:32.727Z,11.28
2018-10-18T23:10:02.274Z,11.24
2018-10-18T23:12:31.574Z,11.12
2018-10-18T23:15:00.955Z,11.05
2018-10-18T23:17:30.250Z,11.11
2018-10-18T23:19:59.573Z,11.12
2018-10-18T23:22:28.959Z,11.05
2018-10-18T23:24:58.259Z,11.03
2018-10-18T23:27:31.062Z,11.16
2018-10-18T23:30:00.342Z,11.20
2018-10-18T23:32:29.623Z,11.12
2018-10-18T23:34:59.381Z,11.00
2018-10-18T23:37:28.784Z,11.03
2018-10-18T23:39:58.069Z,11.02
2018-10-18T23:42:27.378Z,10.97
2018-10-18T23:44:56.714Z,10.85
2018-10-18T23:47:25.996Z,10.75
2018-10-18T23:49:55.426Z,10.56
2018-10-18T23:52:24.865Z,10.57
2018-10-18T23:54:54.216Z,10.56
2018-10-18T23:57:23.645Z,10.55
2018-10-18T23:59:52.960Z,10.61
